sensor_id;sensor_type;location;lat;lon;timestamp;P1;durP1;ratioP1;P2;durP2;ratioP2
47413;SDS011;33163;0.000;0.000;2023-04-05T00:02:22;4.00;;;2.58;;
47413;SDS011;33163;0.000;0.000;2023-04-05T00:04:54;2.10;;;1.67;;
47413;SDS011;33163;0.000;0.000;2023-04-05T00:07:21;5.15;;;2.15;;
47413;SDS011;33163;0.000;0.000;2023-04-05T00:09:49;5.22;;;2.42;;
47413;SDS011;33163;0.000;0.000;2023-04-05T00:12:16;3.75;;;2.10;;
47413;SDS011;33163;0.000;0.000;2023-04-05T00:14:43;4.70;;;2.38;;
47413;SDS011;33163;0.000;0.000;2023-04-05T00:17:10;3.47;;;2.00;;
47413;SDS011;33163;0.000;0.000;2023-04-05T00:19:37;2.20;;;1.60;;
47413;SDS011;33163;0.000;0.000;2023-04-05T00:22:04;3.40;;;2.25;;
47413;SDS011;33163;0.000;0.000;2023-04-05T00:24:34;4.22;;;2.08;;
47413;SDS011;33163;0.000;0.000;2023-04-05T00:27:04;6.13;;;2.50;;
47413;SDS011;33163;0.000;0.000;2023-04-05T00:29:31;4.20;;;2.28;;
47413;SDS011;33163;0.000;0.000;2023-04-05T00:31:58;2.70;;;1.83;;
47413;SDS011;33163;0.000;0.000;2023-04-05T00:34:24;2.65;;;2.08;;
47413;SDS011;33163;0.000;0.000;2023-04-05T00:36:51;4.55;;;2.00;;
47413;SDS011;33163;0.000;0.000;2023-04-05T00:39:18;2.95;;;2.20;;
47413;SDS011;33163;0.000;0.000;2023-04-05T00:41:45;2.67;;;2.15;;
47413;SDS011;33163;0.000;0.000;2023-04-05T00:44:13;3.60;;;2.30;;
47413;SDS011;33163;0.000;0.000;2023-04-05T00:46:40;4.63;;;2.00;;
47413;SDS011;33163;0.000;0.000;2023-04-05T00:49:07;5.05;;;2.00;;
47413;SDS011;33163;0.000;0.000;2023-04-05T00:51:34;2.83;;;1.92;;
47413;SDS011;33163;0.000;0.000;2023-04-05T00:54:03;6.57;;;2.20;;
47413;SDS011;33163;0.000;0.000;2023-04-05T00:56:30;4.22;;;1.90;;
47413;SDS011;33163;0.000;0.000;2023-04-05T00:58:57;5.22;;;2.08;;
47413;SDS011;33163;0.000;0.000;2023-04-05T01:01:26;4.55;;;2.63;;
47413;SDS011;33163;0.000;0.000;2023-04-05T01:03:56;3.33;;;1.95;;
47413;SDS011;33163;0.000;0.000;2023-04-05T01:06:40;3.10;;;2.03;;
47413;SDS011;33163;0.000;0.000;2023-04-05T01:09:13;3.33;;;2.05;;
47413;SDS011;33163;0.000;0.000;2023-04-05T01:11:49;5.25;;;2.10;;
47413;SDS011;33163;0.000;0.000;2023-04-05T01:14:20;3.47;;;2.00;;
47413;SDS011;33163;0.000;0.000;2023-04-05T01:16:48;2.30;;;1.90;;
47413;SDS011;33163;0.000;0.000;2023-04-05T01:19:15;3.17;;;2.00;;
47413;SDS011;33163;0.000;0.000;2023-04-05T01:21:51;4.53;;;2.42;;
47413;SDS011;33163;0.000;0.000;2023-04-05T01:24:43;3.83;;;1.85;;
47413;SDS011;33163;0.000;0.000;2023-04-05T01:27:33;2.72;;;2.03;;
47413;SDS011;33163;0.000;0.000;2023-04-05T01:30:12;3.22;;;1.90;;
47413;SDS011;33163;0.000;0.000;2023-04-05T01:32:45;6.00;;;2.30;;
47413;SDS011;33163;0.000;0.000;2023-04-05T01:35:21;3.38;;;2.15;;
47413;SDS011;33163;0.000;0.000;2023-04-05T01:37:54;4.25;;;2.00;;
47413;SDS011;33163;0.000;0.000;2023-04-05T01:40:25;4.43;;;1.90;;
47413;SDS011;33163;0.000;0.000;2023-04-05T01:42:53;3.95;;;2.08;;
47413;SDS011;33163;0.000;0.000;2023-04-05T01:45:21;3.50;;;2.17;;
47413;SDS011;33163;0.000;0.000;2023-04-05T01:47:48;5.05;;;2.05;;
47413;SDS011;33163;0.000;0.000;2023-04-05T01:50:15;2.95;;;1.88;;
47413;SDS011;33163;0.000;0.000;2023-04-05T01:52:41;4.00;;;1.80;;
47413;SDS011;33163;0.000;0.000;2023-04-05T01:55:08;2.75;;;1.67;;
47413;SDS011;33163;0.000;0.000;2023-04-05T01:57:36;4.95;;;2.28;;
47413;SDS011;33163;0.000;0.000;2023-04-05T02:00:03;2.95;;;2.20;;
47413;SDS011;33163;0.000;0.000;2023-04-05T02:02:32;7.10;;;2.40;;
47413;SDS011;33163;0.000;0.000;2023-04-05T02:04:58;3.70;;;2.15;;
47413;SDS011;33163;0.000;0.000;2023-04-05T02:07:25;2.13;;;1.60;;
47413;SDS011;33163;0.000;0.000;2023-04-05T02:09:52;3.33;;;2.05;;
47413;SDS011;33163;0.000;0.000;2023-04-05T02:12:19;2.88;;;1.80;;
47413;SDS011;33163;0.000;0.000;2023-04-05T02:14:46;2.95;;;1.90;;
47413;SDS011;33163;0.000;0.000;2023-04-05T02:17:13;3.05;;;2.15;;
47413;SDS011;33163;0.000;0.000;2023-04-05T02:19:43;2.45;;;1.95;;
47413;SDS011;33163;0.000;0.000;2023-04-05T02:22:10;3.13;;;1.90;;
47413;SDS011;33163;0.000;0.000;2023-04-05T02:24:37;3.10;;;1.98;;
47413;SDS011;33163;0.000;0.000;2023-04-05T02:27:04;3.28;;;1.50;;
47413;SDS011;33163;0.000;0.000;2023-04-05T02:29:31;2.15;;;1.60;;
47413;SDS011;33163;0.000;0.000;2023-04-05T02:31:58;3.97;;;2.10;;
47413;SDS011;33163;0.000;0.000;2023-04-05T02:34:25;3.50;;;1.90;;
47413;SDS011;33163;0.000;0.000;2023-04-05T02:36:53;4.03;;;2.17;;
47413;SDS011;33163;0.000;0.000;2023-04-05T02:39:20;6.07;;;2.10;;
47413;SDS011;33163;0.000;0.000;2023-04-05T02:41:47;2.78;;;1.88;;
47413;SDS011;33163;0.000;0.000;2023-04-05T02:44:14;2.72;;;1.95;;
47413;SDS011;33163;0.000;0.000;2023-04-05T02:46:41;3.00;;;1.77;;
47413;SDS011;33163;0.000;0.000;2023-04-05T02:49:07;2.10;;;1.70;;
47413;SDS011;33163;0.000;0.000;2023-04-05T02:51:34;3.15;;;1.63;;
47413;SDS011;33163;0.000;0.000;2023-04-05T02:54:02;2.15;;;1.90;;
47413;SDS011;33163;0.000;0.000;2023-04-05T02:56:29;3.83;;;1.67;;
47413;SDS011;33163;0.000;0.000;2023-04-05T02:58:56;1.92;;;1.75;;
47413;SDS011;33163;0.000;0.000;2023-04-05T03:01:23;2.78;;;1.33;;
47413;SDS011;33163;0.000;0.000;2023-04-05T03:03:50;3.55;;;1.67;;
47413;SDS011;33163;0.000;0.000;2023-04-05T03:06:17;3.88;;;1.77;;
47413;SDS011;33163;0.000;0.000;2023-04-05T03:08:44;3.17;;;1.90;;
47413;SDS011;33163;0.000;0.000;2023-04-05T03:11:14;3.33;;;1.55;;
47413;SDS011;33163;0.000;0.000;2023-04-05T03:13:41;2.75;;;1.85;;
47413;SDS011;33163;0.000;0.000;2023-04-05T03:16:08;3.90;;;2.00;;
47413;SDS011;33163;0.000;0.000;2023-04-05T03:18:34;3.47;;;1.63;;
47413;SDS011;33163;0.000;0.000;2023-04-05T03:21:01;2.70;;;1.73;;
47413;SDS011;33163;0.000;0.000;2023-04-05T03:23:28;3.38;;;1.85;;
47413;SDS011;33163;0.000;0.000;2023-04-05T03:25:57;3.78;;;1.63;;
47413;SDS011;33163;0.000;0.000;2023-04-05T03:28:26;2.05;;;1.60;;
47413;SDS011;33163;0.000;0.000;2023-04-05T03:30:53;3.05;;;1.95;;
47413;SDS011;33163;0.000;0.000;2023-04-05T03:33:20;3.55;;;1.95;;
47413;SDS011;33163;0.000;0.000;2023-04-05T03:35:47;3.58;;;1.80;;
47413;SDS011;33163;0.000;0.000;2023-04-05T03:38:14;2.67;;;1.67;;
47413;SDS011;33163;0.000;0.000;2023-04-05T03:40:41;3.22;;;2.00;;
47413;SDS011;33163;0.000;0.000;2023-04-05T03:43:07;3.10;;;1.77;;
47413;SDS011;33163;0.000;0.000;2023-04-05T03:45:35;4.10;;;1.92;;
47413;SDS011;33163;0.000;0.000;2023-04-05T03:48:02;2.67;;;1.90;;
47413;SDS011;33163;0.000;0.000;2023-04-05T03:50:30;3.25;;;1.70;;
47413;SDS011;33163;0.000;0.000;2023-04-05T03:52:57;3.92;;;1.60;;
47413;SDS011;33163;0.000;0.000;2023-04-05T03:55:23;2.45;;;1.73;;
47413;SDS011;33163;0.000;0.000;2023-04-05T03:57:51;3.53;;;1.80;;
47413;SDS011;33163;0.000;0.000;2023-04-05T04:00:17;2.42;;;1.58;;
47413;SDS011;33163;0.000;0.000;2023-04-05T04:02:46;2.38;;;1.73;;
47413;SDS011;33163;0.000;0.000;2023-04-05T04:05:14;3.25;;;1.70;;
47413;SDS011;33163;0.000;0.000;2023-04-05T04:07:42;2.17;;;1.63;;
47413;SDS011;33163;0.000;0.000;2023-04-05T04:10:10;2.22;;;1.83;;
47413;SDS011;33163;0.000;0.000;2023-04-05T04:12:39;5.03;;;1.77;;
47413;SDS011;33163;0.000;0.000;2023-04-05T04:15:06;3.03;;;1.67;;
47413;SDS011;33163;0.000;0.000;2023-04-05T04:17:34;1.77;;;1.65;;
47413;SDS011;33163;0.000;0.000;2023-04-05T04:20:03;2.95;;;1.77;;
47413;SDS011;33163;0.000;0.000;2023-04-05T04:22:34;2.90;;;1.92;;
47413;SDS011;33163;0.000;0.000;2023-04-05T04:25:03;2.83;;;1.85;;
47413;SDS011;33163;0.000;0.000;2023-04-05T04:27:34;2.42;;;1.73;;
47413;SDS011;33163;0.000;0.000;2023-04-05T04:30:03;4.50;;;2.08;;
47413;SDS011;33163;0.000;0.000;2023-04-05T04:32:34;3.65;;;1.67;;
47413;SDS011;33163;0.000;0.000;2023-04-05T04:35:18;4.88;;;1.90;;
47413;SDS011;33163;0.000;0.000;2023-04-05T04:37:53;2.22;;;1.65;;
47413;SDS011;33163;0.000;0.000;2023-04-05T04:40:23;7.15;;;2.10;;
47413;SDS011;33163;0.000;0.000;2023-04-05T04:42:50;3.53;;;1.88;;
47413;SDS011;33163;0.000;0.000;2023-04-05T04:45:18;3.60;;;1.80;;
47413;SDS011;33163;0.000;0.000;2023-04-05T04:47:45;2.85;;;1.70;;
47413;SDS011;33163;0.000;0.000;2023-04-05T04:50:14;3.10;;;1.52;;
47413;SDS011;33163;0.000;0.000;2023-04-05T04:52:45;3.67;;;1.70;;
47413;SDS011;33163;0.000;0.000;2023-04-05T04:55:12;1.67;;;1.50;;
47413;SDS011;33163;0.000;0.000;2023-04-05T04:57:39;4.90;;;1.45;;
47413;SDS011;33163;0.000;0.000;2023-04-05T05:00:07;3.97;;;1.77;;
47413;SDS011;33163;0.000;0.000;2023-04-05T05:02:36;3.92;;;1.73;;
47413;SDS011;33163;0.000;0.000;2023-04-05T05:05:03;4.63;;;1.85;;
47413;SDS011;33163;0.000;0.000;2023-04-05T05:07:31;2.70;;;1.70;;
47413;SDS011;33163;0.000;0.000;2023-04-05T05:09:59;2.58;;;1.90;;
47413;SDS011;33163;0.000;0.000;2023-04-05T05:12:26;2.53;;;1.83;;
47413;SDS011;33163;0.000;0.000;2023-04-05T05:14:54;4.70;;;2.13;;
47413;SDS011;33163;0.000;0.000;2023-04-05T05:17:20;2.00;;;1.52;;
47413;SDS011;33163;0.000;0.000;2023-04-05T05:19:47;3.90;;;1.95;;
47413;SDS011;33163;0.000;0.000;2023-04-05T05:22:14;3.97;;;1.50;;
47413;SDS011;33163;0.000;0.000;2023-04-05T05:24:41;4.72;;;1.80;;
47413;SDS011;33163;0.000;0.000;2023-04-05T05:27:09;3.35;;;2.13;;
47413;SDS011;33163;0.000;0.000;2023-04-05T05:29:36;2.67;;;2.28;;
47413;SDS011;33163;0.000;0.000;2023-04-05T05:32:03;4.20;;;1.80;;
47413;SDS011;33163;0.000;0.000;2023-04-05T05:34:30;4.20;;;1.80;;
47413;SDS011;33163;0.000;0.000;2023-04-05T05:36:57;3.22;;;1.98;;
47413;SDS011;33163;0.000;0.000;2023-04-05T05:39:24;3.22;;;1.85;;
47413;SDS011;33163;0.000;0.000;2023-04-05T05:41:51;5.95;;;2.00;;
47413;SDS011;33163;0.000;0.000;2023-04-05T05:44:19;2.30;;;1.80;;
47413;SDS011;33163;0.000;0.000;2023-04-05T05:46:45;2.95;;;2.00;;
47413;SDS011;33163;0.000;0.000;2023-04-05T05:49:12;5.80;;;2.10;;
47413;SDS011;33163;0.000;0.000;2023-04-05T05:51:39;3.13;;;1.80;;
47413;SDS011;33163;0.000;0.000;2023-04-05T05:54:06;4.00;;;1.45;;
47413;SDS011;33163;0.000;0.000;2023-04-05T05:56:33;2.33;;;2.00;;
47413;SDS011;33163;0.000;0.000;2023-04-05T05:58:59;3.35;;;1.95;;
47413;SDS011;33163;0.000;0.000;2023-04-05T06:01:27;4.65;;;1.50;;
47413;SDS011;33163;0.000;0.000;2023-04-05T06:03:54;2.10;;;1.55;;
47413;SDS011;33163;0.000;0.000;2023-04-05T06:06:21;6.22;;;1.77;;
47413;SDS011;33163;0.000;0.000;2023-04-05T06:08:48;3.53;;;2.05;;
47413;SDS011;33163;0.000;0.000;2023-04-05T06:11:15;11.35;;;2.50;;
47413;SDS011;33163;0.000;0.000;2023-04-05T06:13:43;6.05;;;1.92;;
47413;SDS011;33163;0.000;0.000;2023-04-05T06:16:10;4.07;;;2.05;;
47413;SDS011;33163;0.000;0.000;2023-04-05T06:18:38;3.45;;;1.90;;
47413;SDS011;33163;0.000;0.000;2023-04-05T06:21:05;4.93;;;2.30;;
47413;SDS011;33163;0.000;0.000;2023-04-05T06:23:31;5.50;;;2.30;;
47413;SDS011;33163;0.000;0.000;2023-04-05T06:25:58;3.45;;;2.30;;
47413;SDS011;33163;0.000;0.000;2023-04-05T06:28:25;5.50;;;2.30;;
47413;SDS011;33163;0.000;0.000;2023-04-05T06:30:52;3.65;;;2.33;;
47413;SDS011;33163;0.000;0.000;2023-04-05T06:33:19;3.40;;;2.42;;
47413;SDS011;33163;0.000;0.000;2023-04-05T06:35:47;3.63;;;2.40;;
47413;SDS011;33163;0.000;0.000;2023-04-05T06:38:14;6.05;;;2.50;;
47413;SDS011;33163;0.000;0.000;2023-04-05T06:40:41;6.97;;;2.10;;
47413;SDS011;33163;0.000;0.000;2023-04-05T06:43:08;4.28;;;2.60;;
47413;SDS011;33163;0.000;0.000;2023-04-05T06:45:36;6.45;;;2.42;;
47413;SDS011;33163;0.000;0.000;2023-04-05T06:48:03;5.22;;;2.22;;
47413;SDS011;33163;0.000;0.000;2023-04-05T06:50:30;5.38;;;2.58;;
47413;SDS011;33163;0.000;0.000;2023-04-05T06:52:58;4.00;;;2.47;;
47413;SDS011;33163;0.000;0.000;2023-04-05T06:55:25;6.13;;;3.05;;
47413;SDS011;33163;0.000;0.000;2023-04-05T06:57:52;5.93;;;2.47;;
47413;SDS011;33163;0.000;0.000;2023-04-05T07:00:19;3.33;;;2.45;;
47413;SDS011;33163;0.000;0.000;2023-04-05T07:02:46;9.38;;;3.08;;
47413;SDS011;33163;0.000;0.000;2023-04-05T07:05:12;5.78;;;2.63;;
47413;SDS011;33163;0.000;0.000;2023-04-05T07:07:39;4.63;;;2.85;;
47413;SDS011;33163;0.000;0.000;2023-04-05T07:10:09;6.03;;;2.85;;
47413;SDS011;33163;0.000;0.000;2023-04-05T07:12:37;3.95;;;2.55;;
47413;SDS011;33163;0.000;0.000;2023-04-05T07:15:05;4.57;;;2.83;;
47413;SDS011;33163;0.000;0.000;2023-04-05T07:17:32;5.20;;;2.72;;
47413;SDS011;33163;0.000;0.000;2023-04-05T07:19:59;6.32;;;3.10;;
47413;SDS011;33163;0.000;0.000;2023-04-05T07:22:26;4.50;;;2.45;;
47413;SDS011;33163;0.000;0.000;2023-04-05T07:24:52;7.50;;;3.30;;
47413;SDS011;33163;0.000;0.000;2023-04-05T07:27:20;7.22;;;3.53;;
47413;SDS011;33163;0.000;0.000;2023-04-05T07:29:47;4.88;;;2.83;;
47413;SDS011;33163;0.000;0.000;2023-04-05T07:32:14;6.28;;;3.30;;
47413;SDS011;33163;0.000;0.000;2023-04-05T07:34:41;6.40;;;3.08;;
47413;SDS011;33163;0.000;0.000;2023-04-05T07:37:08;5.00;;;3.17;;
47413;SDS011;33163;0.000;0.000;2023-04-05T07:39:35;6.90;;;2.78;;
47413;SDS011;33163;0.000;0.000;2023-04-05T07:42:02;3.00;;;2.42;;
47413;SDS011;33163;0.000;0.000;2023-04-05T07:44:30;6.57;;;3.58;;
47413;SDS011;33163;0.000;0.000;2023-04-05T07:46:56;8.68;;;3.22;;
47413;SDS011;33163;0.000;0.000;2023-04-05T07:49:24;8.00;;;3.25;;
47413;SDS011;33163;0.000;0.000;2023-04-05T07:51:53;5.57;;;3.13;;
47413;SDS011;33163;0.000;0.000;2023-04-05T07:54:20;6.60;;;2.80;;
47413;SDS011;33163;0.000;0.000;2023-04-05T07:56:47;5.60;;;3.22;;
47413;SDS011;33163;0.000;0.000;2023-04-05T07:59:14;4.72;;;2.83;;
47413;SDS011;33163;0.000;0.000;2023-04-05T08:01:42;3.58;;;2.70;;
47413;SDS011;33163;0.000;0.000;2023-04-05T08:04:09;7.43;;;3.20;;
47413;SDS011;33163;0.000;0.000;2023-04-05T08:06:36;4.68;;;3.05;;
47413;SDS011;33163;0.000;0.000;2023-04-05T08:09:03;4.47;;;2.80;;
47413;SDS011;33163;0.000;0.000;2023-04-05T08:11:32;5.32;;;3.15;;
47413;SDS011;33163;0.000;0.000;2023-04-05T08:13:59;5.40;;;2.70;;
47413;SDS011;33163;0.000;0.000;2023-04-05T08:16:26;3.63;;;2.60;;
47413;SDS011;33163;0.000;0.000;2023-04-05T08:18:54;4.95;;;3.00;;
47413;SDS011;33163;0.000;0.000;2023-04-05T08:21:21;8.02;;;2.83;;
47413;SDS011;33163;0.000;0.000;2023-04-05T08:23:48;4.05;;;2.65;;
47413;SDS011;33163;0.000;0.000;2023-04-05T08:26:15;6.20;;;2.97;;
47413;SDS011;33163;0.000;0.000;2023-04-05T08:28:42;4.95;;;2.63;;
47413;SDS011;33163;0.000;0.000;2023-04-05T08:31:09;9.35;;;2.72;;
47413;SDS011;33163;0.000;0.000;2023-04-05T08:33:36;5.28;;;2.65;;
47413;SDS011;33163;0.000;0.000;2023-04-05T08:36:04;6.18;;;2.50;;
47413;SDS011;33163;0.000;0.000;2023-04-05T08:38:32;2.95;;;2.63;;
47413;SDS011;33163;0.000;0.000;2023-04-05T08:41:05;4.88;;;2.40;;
47413;SDS011;33163;0.000;0.000;2023-04-05T08:43:36;6.33;;;2.80;;
47413;SDS011;33163;0.000;0.000;2023-04-05T08:46:09;3.97;;;2.38;;
47413;SDS011;33163;0.000;0.000;2023-04-05T08:48:39;4.97;;;2.15;;
47413;SDS011;33163;0.000;0.000;2023-04-05T08:51:08;5.35;;;2.35;;
47413;SDS011;33163;0.000;0.000;2023-04-05T08:53:35;9.35;;;2.53;;
47413;SDS011;33163;0.000;0.000;2023-04-05T08:56:02;7.43;;;3.45;;
47413;SDS011;33163;0.000;0.000;2023-04-05T08:58:30;6.20;;;2.70;;
47413;SDS011;33163;0.000;0.000;2023-04-05T09:00:58;5.15;;;2.70;;
47413;SDS011;33163;0.000;0.000;2023-04-05T09:03:35;5.50;;;2.75;;
47413;SDS011;33163;0.000;0.000;2023-04-05T09:06:04;9.80;;;3.00;;
47413;SDS011;33163;0.000;0.000;2023-04-05T09:08:35;8.82;;;2.40;;
47413;SDS011;33163;0.000;0.000;2023-04-05T09:11:04;7.82;;;2.55;;
47413;SDS011;33163;0.000;0.000;2023-04-05T09:13:30;6.63;;;2.85;;
47413;SDS011;33163;0.000;0.000;2023-04-05T09:15:58;7.10;;;2.72;;
47413;SDS011;33163;0.000;0.000;2023-04-05T09:18:26;6.18;;;2.60;;
47413;SDS011;33163;0.000;0.000;2023-04-05T09:21:00;4.28;;;2.47;;
47413;SDS011;33163;0.000;0.000;2023-04-05T09:23:29;6.72;;;2.40;;
47413;SDS011;33163;0.000;0.000;2023-04-05T09:25:57;7.25;;;2.90;;
47413;SDS011;33163;0.000;0.000;2023-04-05T09:28:38;4.78;;;1.88;;
47413;SDS011;33163;0.000;0.000;2023-04-05T09:31:06;5.55;;;2.05;;
47413;SDS011;33163;0.000;0.000;2023-04-05T09:33:33;2.60;;;1.95;;
47413;SDS011;33163;0.000;0.000;2023-04-05T09:36:00;5.47;;;2.22;;
47413;SDS011;33163;0.000;0.000;2023-04-05T09:38:43;5.35;;;2.50;;
47413;SDS011;33163;0.000;0.000;2023-04-05T09:41:12;4.45;;;2.58;;
47413;SDS011;33163;0.000;0.000;2023-04-05T09:43:40;4.32;;;2.00;;
47413;SDS011;33163;0.000;0.000;2023-04-05T09:46:15;3.95;;;2.15;;
47413;SDS011;33163;0.000;0.000;2023-04-05T09:48:56;4.63;;;2.28;;
47413;SDS011;33163;0.000;0.000;2023-04-05T09:51:23;3.92;;;1.92;;
47413;SDS011;33163;0.000;0.000;2023-04-05T09:53:58;3.27;;;2.10;;
47413;SDS011;33163;0.000;0.000;2023-04-05T09:56:27;3.38;;;2.38;;
47413;SDS011;33163;0.000;0.000;2023-04-05T09:58:59;4.70;;;2.05;;
47413;SDS011;33163;0.000;0.000;2023-04-05T10:01:29;3.88;;;2.28;;
47413;SDS011;33163;0.000;0.000;2023-04-05T10:03:56;3.33;;;2.03;;
47413;SDS011;33163;0.000;0.000;2023-04-05T10:06:33;3.17;;;1.90;;
47413;SDS011;33163;0.000;0.000;2023-04-05T10:09:01;3.63;;;1.75;;
47413;SDS011;33163;0.000;0.000;2023-04-05T10:11:30;4.35;;;2.00;;
47413;SDS011;33163;0.000;0.000;2023-04-05T10:13:58;2.72;;;2.00;;
47413;SDS011;33163;0.000;0.000;2023-04-05T10:16:27;3.90;;;2.33;;
47413;SDS011;33163;0.000;0.000;2023-04-05T10:18:55;4.55;;;2.10;;
47413;SDS011;33163;0.000;0.000;2023-04-05T10:21:23;4.88;;;2.13;;
47413;SDS011;33163;0.000;0.000;2023-04-05T10:23:54;4.57;;;1.95;;
47413;SDS011;33163;0.000;0.000;2023-04-05T10:26:29;4.32;;;2.28;;
47413;SDS011;33163;0.000;0.000;2023-04-05T10:31:38;7.97;;;2.45;;
47413;SDS011;33163;0.000;0.000;2023-04-05T10:34:15;3.03;;;1.98;;
47413;SDS011;33163;0.000;0.000;2023-04-05T10:36:55;2.50;;;1.80;;
47413;SDS011;33163;0.000;0.000;2023-04-05T10:39:25;4.18;;;1.98;;
47413;SDS011;33163;0.000;0.000;2023-04-05T10:41:57;6.30;;;2.60;;
47413;SDS011;33163;0.000;0.000;2023-04-05T10:44:26;5.35;;;2.50;;
47413;SDS011;33163;0.000;0.000;2023-04-05T10:46:57;5.75;;;2.10;;
47413;SDS011;33163;0.000;0.000;2023-04-05T10:49:28;5.30;;;1.95;;
47413;SDS011;33163;0.000;0.000;2023-04-05T10:51:58;9.38;;;2.55;;
47413;SDS011;33163;0.000;0.000;2023-04-05T10:54:26;3.40;;;2.25;;
47413;SDS011;33163;0.000;0.000;2023-04-05T10:56:56;4.82;;;2.33;;
47413;SDS011;33163;0.000;0.000;2023-04-05T10:59:23;5.43;;;2.35;;
47413;SDS011;33163;0.000;0.000;2023-04-05T11:01:51;5.20;;;2.17;;
47413;SDS011;33163;0.000;0.000;2023-04-05T11:04:19;5.93;;;2.35;;
47413;SDS011;33163;0.000;0.000;2023-04-05T11:06:45;7.90;;;2.20;;
47413;SDS011;33163;0.000;0.000;2023-04-05T11:09:13;5.22;;;2.25;;
47413;SDS011;33163;0.000;0.000;2023-04-05T11:11:42;10.52;;;2.50;;
47413;SDS011;33163;0.000;0.000;2023-04-05T11:14:18;7.30;;;2.30;;
47413;SDS011;33163;0.000;0.000;2023-04-05T11:16:47;4.10;;;2.10;;
47413;SDS011;33163;0.000;0.000;2023-04-05T11:19:17;4.15;;;2.10;;
47413;SDS011;33163;0.000;0.000;2023-04-05T11:21:44;4.60;;;2.28;;
47413;SDS011;33163;0.000;0.000;2023-04-05T11:24:11;2.95;;;1.58;;
47413;SDS011;33163;0.000;0.000;2023-04-05T11:29:45;6.50;;;2.10;;
47413;SDS011;33163;0.000;0.000;2023-04-05T11:32:14;4.13;;;2.33;;
47413;SDS011;33163;0.000;0.000;2023-04-05T11:34:41;6.47;;;2.03;;
47413;SDS011;33163;0.000;0.000;2023-04-05T11:37:08;5.38;;;1.90;;
47413;SDS011;33163;0.000;0.000;2023-04-05T11:39:35;12.73;;;2.70;;
47413;SDS011;33163;0.000;0.000;2023-04-05T11:42:03;4.78;;;2.20;;
47413;SDS011;33163;0.000;0.000;2023-04-05T11:47:18;5.03;;;2.00;;
47413;SDS011;33163;0.000;0.000;2023-04-05T11:49:48;6.35;;;2.10;;
47413;SDS011;33163;0.000;0.000;2023-04-05T11:52:16;3.50;;;2.05;;
47413;SDS011;33163;0.000;0.000;2023-04-05T11:54:44;5.95;;;2.05;;
47413;SDS011;33163;0.000;0.000;2023-04-05T11:57:11;3.30;;;1.80;;
47413;SDS011;33163;0.000;0.000;2023-04-05T11:59:40;7.30;;;1.92;;
47413;SDS011;33163;0.000;0.000;2023-04-05T12:02:09;7.65;;;2.80;;
47413;SDS011;33163;0.000;0.000;2023-04-05T12:04:36;4.93;;;1.90;;
47413;SDS011;33163;0.000;0.000;2023-04-05T12:07:11;3.03;;;1.90;;
47413;SDS011;33163;0.000;0.000;2023-04-05T12:09:58;6.57;;;3.40;;
47413;SDS011;33163;0.000;0.000;2023-04-05T12:12:26;5.30;;;3.33;;
47413;SDS011;33163;0.000;0.000;2023-04-05T12:14:59;6.05;;;2.75;;
47413;SDS011;33163;0.000;0.000;2023-04-05T12:17:43;6.60;;;2.58;;
47413;SDS011;33163;0.000;0.000;2023-04-05T12:20:14;3.95;;;2.20;;
47413;SDS011;33163;0.000;0.000;2023-04-05T12:22:43;4.57;;;2.30;;
47413;SDS011;33163;0.000;0.000;2023-04-05T12:25:12;3.65;;;2.10;;
47413;SDS011;33163;0.000;0.000;2023-04-05T12:27:39;6.13;;;2.33;;
47413;SDS011;33163;0.000;0.000;2023-04-05T12:30:11;11.90;;;2.45;;
47413;SDS011;33163;0.000;0.000;2023-04-05T12:32:40;8.68;;;2.50;;
47413;SDS011;33163;0.000;0.000;2023-04-05T12:35:12;4.35;;;1.98;;
47413;SDS011;33163;0.000;0.000;2023-04-05T12:37:41;4.25;;;1.92;;
47413;SDS011;33163;0.000;0.000;2023-04-05T12:40:08;7.45;;;1.95;;
47413;SDS011;33163;0.000;0.000;2023-04-05T12:42:36;7.03;;;2.00;;
47413;SDS011;33163;0.000;0.000;2023-04-05T12:45:04;3.65;;;2.28;;
47413;SDS011;33163;0.000;0.000;2023-04-05T12:47:32;6.13;;;1.90;;
47413;SDS011;33163;0.000;0.000;2023-04-05T12:50:14;11.63;;;2.25;;
47413;SDS011;33163;0.000;0.000;2023-04-05T12:52:55;4.40;;;1.85;;
47413;SDS011;33163;0.000;0.000;2023-04-05T12:55:23;5.03;;;2.50;;
47413;SDS011;33163;0.000;0.000;2023-04-05T12:57:55;5.72;;;2.17;;
47413;SDS011;33163;0.000;0.000;2023-04-05T13:00:23;4.20;;;1.70;;
47413;SDS011;33163;0.000;0.000;2023-04-05T13:02:52;6.75;;;1.80;;
47413;SDS011;33163;0.000;0.000;2023-04-05T13:05:22;4.30;;;2.05;;
47413;SDS011;33163;0.000;0.000;2023-04-05T13:07:50;4.95;;;1.70;;
47413;SDS011;33163;0.000;0.000;2023-04-05T13:10:17;2.78;;;1.50;;
47413;SDS011;33163;0.000;0.000;2023-04-05T13:12:44;6.97;;;1.80;;
47413;SDS011;33163;0.000;0.000;2023-04-05T13:15:11;3.58;;;1.90;;
47413;SDS011;33163;0.000;0.000;2023-04-05T13:17:39;5.55;;;2.17;;
47413;SDS011;33163;0.000;0.000;2023-04-05T13:20:06;3.00;;;1.83;;
47413;SDS011;33163;0.000;0.000;2023-04-05T13:22:36;3.92;;;2.08;;
47413;SDS011;33163;0.000;0.000;2023-04-05T13:25:03;5.63;;;1.98;;
47413;SDS011;33163;0.000;0.000;2023-04-05T13:27:30;3.63;;;2.05;;
47413;SDS011;33163;0.000;0.000;2023-04-05T13:29:57;4.25;;;2.30;;
47413;SDS011;33163;0.000;0.000;2023-04-05T13:32:24;4.80;;;1.90;;
47413;SDS011;33163;0.000;0.000;2023-04-05T13:34:51;6.00;;;2.30;;
47413;SDS011;33163;0.000;0.000;2023-04-05T13:37:17;4.40;;;1.85;;
47413;SDS011;33163;0.000;0.000;2023-04-05T13:39:46;4.95;;;2.10;;
47413;SDS011;33163;0.000;0.000;2023-04-05T13:42:12;3.05;;;1.85;;
47413;SDS011;33163;0.000;0.000;2023-04-05T13:44:39;5.07;;;2.08;;
47413;SDS011;33163;0.000;0.000;2023-04-05T13:47:06;8.18;;;2.55;;
47413;SDS011;33163;0.000;0.000;2023-04-05T13:49:33;4.20;;;2.47;;
47413;SDS011;33163;0.000;0.000;2023-04-05T13:52:00;4.03;;;2.25;;
47413;SDS011;33163;0.000;0.000;2023-04-05T13:54:26;6.15;;;2.60;;
47413;SDS011;33163;0.000;0.000;2023-04-05T13:56:55;3.47;;;2.17;;
47413;SDS011;33163;0.000;0.000;2023-04-05T13:59:23;5.35;;;2.38;;
47413;SDS011;33163;0.000;0.000;2023-04-05T14:01:49;9.95;;;2.63;;
47413;SDS011;33163;0.000;0.000;2023-04-05T14:04:17;9.73;;;2.30;;
47413;SDS011;33163;0.000;0.000;2023-04-05T14:06:44;4.85;;;2.50;;
47413;SDS011;33163;0.000;0.000;2023-04-05T14:09:11;4.25;;;2.20;;
47413;SDS011;33163;0.000;0.000;2023-04-05T14:11:38;5.05;;;2.50;;
47413;SDS011;33163;0.000;0.000;2023-04-05T14:14:06;5.85;;;2.45;;
47413;SDS011;33163;0.000;0.000;2023-04-05T14:16:33;3.90;;;1.88;;
47413;SDS011;33163;0.000;0.000;2023-04-05T14:19:01;4.82;;;2.38;;
47413;SDS011;33163;0.000;0.000;2023-04-05T14:21:28;5.25;;;2.30;;
47413;SDS011;33163;0.000;0.000;2023-04-05T14:23:55;9.73;;;2.72;;
47413;SDS011;33163;0.000;0.000;2023-04-05T14:26:22;6.53;;;2.25;;
47413;SDS011;33163;0.000;0.000;2023-04-05T14:28:50;3.72;;;2.42;;
47413;SDS011;33163;0.000;0.000;2023-04-05T14:31:18;8.85;;;2.40;;
47413;SDS011;33163;0.000;0.000;2023-04-05T14:33:45;6.88;;;2.63;;
47413;SDS011;33163;0.000;0.000;2023-04-05T14:36:12;7.35;;;2.65;;
47413;SDS011;33163;0.000;0.000;2023-04-05T14:38:39;3.70;;;2.47;;
47413;SDS011;33163;0.000;0.000;2023-04-05T14:41:05;6.82;;;2.95;;
47413;SDS011;33163;0.000;0.000;2023-04-05T14:43:32;7.72;;;2.47;;
47413;SDS011;33163;0.000;0.000;2023-04-05T14:45:59;5.63;;;2.85;;
47413;SDS011;33163;0.000;0.000;2023-04-05T14:48:27;6.47;;;3.03;;
47413;SDS011;33163;0.000;0.000;2023-04-05T14:50:55;15.70;;;2.55;;
47413;SDS011;33163;0.000;0.000;2023-04-05T14:53:22;6.25;;;2.70;;
47413;SDS011;33163;0.000;0.000;2023-04-05T14:55:50;5.05;;;3.05;;
47413;SDS011;33163;0.000;0.000;2023-04-05T14:58:17;6.10;;;2.42;;
47413;SDS011;33163;0.000;0.000;2023-04-05T15:00:44;7.43;;;3.08;;
47413;SDS011;33163;0.000;0.000;2023-04-05T15:03:12;4.10;;;2.60;;
47413;SDS011;33163;0.000;0.000;2023-04-05T15:05:41;4.25;;;2.53;;
47413;SDS011;33163;0.000;0.000;2023-04-05T15:08:08;3.85;;;2.92;;
47413;SDS011;33163;0.000;0.000;2023-04-05T15:10:35;4.15;;;2.80;;
47413;SDS011;33163;0.000;0.000;2023-04-05T15:13:02;11.80;;;3.05;;
47413;SDS011;33163;0.000;0.000;2023-04-05T15:15:29;10.98;;;2.60;;
47413;SDS011;33163;0.000;0.000;2023-04-05T15:17:56;5.55;;;2.97;;